Time;durP1;ratioP1;P1;durP2;ratioP2;P2;SDS_P1;SDS_P2;PMS_P1;PMS_P2;Temp;Humidity;BMP_temperature;BMP_pressure;BME280_temperature;BME280_humidity;BME280_pressure;Samples;Min_cycle;Max_cycle;Signal;HPM_P1;HPM_P2
2022/10/18 00:00:45;;;;;;;7.30;4.53;;;;;;;;;;4991369;28;22109;-55
2022/10/18 00:03:11;;;;;;;5.40;4.20;;;;;;;;;;4973336;28;20507;-55
2022/10/18 00:05:37;;;;;;;6.93;4.27;;;;;;;;;;4966203;28;20445;-55
2022/10/18 00:08:03;;;;;;;5.03;3.40;;;;;;;;;;4962628;28;20452;-55
2022/10/18 00:10:29;;;;;;;6.93;3.63;;;;;;;;;;4980170;28;20445;-54
2022/10/18 00:12:55;;;;;;;7.50;5.13;;;;;;;;;;4979611;28;20466;-54
2022/10/18 00:15:21;;;;;;;9.00;4.80;;;;;;;;;;4980234;28;20444;-53
2022/10/18 00:17:47;;;;;;;24.43;5.40;;;;;;;;;;4954736;28;20444;-54
2022/10/18 00:20:13;;;;;;;4.57;3.97;;;;;;;;;;4975251;28;20437;-54
2022/10/18 00:22:39;;;;;;;8.00;4.60;;;;;;;;;;4933694;28;20568;-54
2022/10/18 00:25:05;;;;;;;11.30;4.50;;;;;;;;;;4979762;28;20449;-54
2022/10/18 00:27:31;;;;;;;11.60;5.30;;;;;;;;;;4961705;28;20450;-55
2022/10/18 00:29:57;;;;;;;4.97;4.47;;;;;;;;;;4970978;28;20429;-55
2022/10/18 00:32:23;;;;;;;4.73;4.03;;;;;;;;;;4970443;28;20448;-53
2022/10/18 00:34:49;;;;;;;8.53;5.17;;;;;;;;;;4974835;28;20462;-54
2022/10/18 00:37:15;;;;;;;6.70;4.17;;;;;;;;;;4956789;28;21121;-54
2022/10/18 00:39:41;;;;;;;10.77;4.50;;;;;;;;;;4981972;28;20429;-54
2022/10/18 00:42:07;;;;;;;17.23;4.27;;;;;;;;;;4970986;28;20482;-55
2022/10/18 00:44:33;;;;;;;10.50;3.90;;;;;;;;;;4977136;28;20825;-56
2022/10/18 00:47:01;;;;;;;5.30;4.30;;;;;;;;;;4953985;28;20465;-54
2022/10/18 00:49:28;;;;;;;7.30;4.50;;;;;;;;;;4973824;28;20481;-54
2022/10/18 00:51:59;;;;;;;7.87;4.00;;;;;;;;;;4949565;28;20457;-55
2022/10/18 00:54:25;;;;;;;11.43;4.17;;;;;;;;;;4973076;28;20555;-53
2022/10/18 00:56:51;;;;;;;5.67;3.90;;;;;;;;;;4996699;28;20495;-56
2022/10/18 00:59:17;;;;;;;7.83;4.27;;;;;;;;;;4970327;28;20528;-59
2022/10/18 01:01:43;;;;;;;7.40;4.27;;;;;;;;;;5005591;28;20493;-56
2022/10/18 01:04:10;;;;;;;15.93;3.97;;;;;;;;;;4974226;28;20437;-55
2022/10/18 01:06:39;;;;;;;13.13;3.77;;;;;;;;;;4974383;28;20927;-56
2022/10/18 01:09:15;;;;;;;8.23;3.40;;;;;;;;;;4994060;28;20516;-54
2022/10/18 01:11:53;;;;;;;9.60;3.80;;;;;;;;;;4972129;28;20494;-55
2022/10/18 01:14:22;;;;;;;5.47;3.87;;;;;;;;;;4977063;28;20528;-56
2022/10/18 01:16:48;;;;;;;8.47;3.23;;;;;;;;;;4963088;28;20475;-55
2022/10/18 01:19:33;;;;;;;6.80;3.77;;;;;;;;;;4973400;28;21357;-54
2022/10/18 01:22:01;;;;;;;5.10;2.77;;;;;;;;;;4962934;28;20507;-55
2022/10/18 01:24:33;;;;;;;7.63;3.70;;;;;;;;;;4971907;28;20477;-55
2022/10/18 01:27:09;;;;;;;5.70;3.00;;;;;;;;;;4947043;28;20539;-54
2022/10/18 01:29:43;;;;;;;5.20;2.80;;;;;;;;;;4975077;28;20495;-54
2022/10/18 01:32:13;;;;;;;5.17;3.93;;;;;;;;;;4972929;28;21451;-53
2022/10/18 01:34:39;;;;;;;5.57;3.00;;;;;;;;;;4998341;28;20500;-56
2022/10/18 01:37:06;;;;;;;4.43;3.60;;;;;;;;;;4962672;28;20441;-56
2022/10/18 01:39:33;;;;;;;10.23;3.03;;;;;;;;;;4984563;28;20483;-56
2022/10/18 01:41:59;;;;;;;7.73;2.90;;;;;;;;;;4996440;28;20484;-55
2022/10/18 01:44:26;;;;;;;8.53;2.87;;;;;;;;;;4975491;28;20787;-56
2022/10/18 01:46:52;;;;;;;4.53;2.50;;;;;;;;;;5010848;28;20436;-54
2022/10/18 01:49:18;;;;;;;3.57;2.47;;;;;;;;;;4975578;28;20467;-56
2022/10/18 01:51:44;;;;;;;3.80;2.30;;;;;;;;;;5002610;28;20434;-57
2022/10/18 01:54:10;;;;;;;2.97;2.40;;;;;;;;;;4973241;28;20425;-55
2022/10/18 01:56:42;;;;;;;6.70;3.30;;;;;;;;;;5007809;28;20496;-55
2022/10/18 01:59:14;;;;;;;9.80;3.63;;;;;;;;;;4974716;28;20446;-54
2022/10/18 02:01:44;;;;;;;6.00;3.33;;;;;;;;;;4963363;28;21119;-55
2022/10/18 02:04:15;;;;;;;11.60;2.77;;;;;;;;;;4940889;28;20523;-54
2022/10/18 02:06:42;;;;;;;5.00;3.10;;;;;;;;;;4982187;28;20530;-53
2022/10/18 02:09:08;;;;;;;8.93;2.90;;;;;;;;;;4958540;28;20444;-56
2022/10/18 02:11:34;;;;;;;6.60;3.13;;;;;;;;;;4978520;28;20432;-55
2022/10/18 02:14:03;;;;;;;6.43;3.13;;;;;;;;;;5008098;28;20444;-56
2022/10/18 02:16:29;;;;;;;5.67;2.77;;;;;;;;;;5011479;28;20507;-55
2022/10/18 02:19:00;;;;;;;2.90;2.50;;;;;;;;;;4959358;28;20468;-55
2022/10/18 02:21:26;;;;;;;3.80;2.83;;;;;;;;;;5006657;28;20584;-56
2022/10/18 02:23:52;;;;;;;6.30;2.90;;;;;;;;;;4987307;28;20433;-56
2022/10/18 02:26:18;;;;;;;3.60;2.97;;;;;;;;;;4980262;28;24010;-57
2022/10/18 02:28:44;;;;;;;3.63;2.97;;;;;;;;;;4955744;28;20452;-55
2022/10/18 02:31:20;;;;;;;5.63;2.70;;;;;;;;;;4981340;28;21096;-55
2022/10/18 02:34:00;;;;;;;6.10;2.63;;;;;;;;;;4932233;28;20446;-53
2022/10/18 02:36:28;;;;;;;2.70;2.47;;;;;;;;;;4977304;28;20528;-55
2022/10/18 02:38:56;;;;;;;3.00;2.67;;;;;;;;;;4985873;28;21042;-55
2022/10/18 02:41:25;;;;;;;3.60;2.87;;;;;;;;;;4977947;28;20484;-54
2022/10/18 02:43:51;;;;;;;6.63;3.20;;;;;;;;;;4975969;28;20537;-55
2022/10/18 02:46:17;;;;;;;3.63;2.73;;;;;;;;;;4976347;28;21040;-55
2022/10/18 02:48:43;;;;;;;4.90;2.73;;;;;;;;;;4966616;28;20549;-55
2022/10/18 02:51:09;;;;;;;3.73;2.53;;;;;;;;;;4972459;28;20452;-54
2022/10/18 02:53:35;;;;;;;5.47;3.17;;;;;;;;;;4998127;28;20445;-56
2022/10/18 02:56:02;;;;;;;4.63;2.77;;;;;;;;;;4969699;28;20441;-55
2022/10/18 02:58:28;;;;;;;5.53;2.57;;;;;;;;;;4967040;28;20433;-55
2022/10/18 03:00:54;;;;;;;9.87;2.73;;;;;;;;;;4965911;28;20849;-55
2022/10/18 03:03:20;;;;;;;4.57;3.40;;;;;;;;;;4965698;28;20950;-56
2022/10/18 03:05:50;;;;;;;5.80;3.10;;;;;;;;;;4943923;28;20452;-56
2022/10/18 03:08:15;;;;;;;8.07;3.23;;;;;;;;;;4976825;28;20457;-56
2022/10/18 03:10:45;;;;;;;5.90;2.77;;;;;;;;;;4955919;28;20517;-56
2022/10/18 03:13:11;;;;;;;4.63;3.17;;;;;;;;;;4978772;28;20441;-54
2022/10/18 03:15:37;;;;;;;5.33;2.70;;;;;;;;;;4971618;28;20453;-55
2022/10/18 03:18:02;;;;;;;4.47;2.70;;;;;;;;;;4972984;28;20468;-55
2022/10/18 03:20:28;;;;;;;6.30;3.10;;;;;;;;;;4972505;28;20551;-56
2022/10/18 03:22:54;;;;;;;2.90;2.50;;;;;;;;;;4978360;28;20435;-55
2022/10/18 03:25:20;;;;;;;8.17;2.93;;;;;;;;;;4960385;28;20453;-55
2022/10/18 03:27:46;;;;;;;8.93;2.80;;;;;;;;;;5008008;28;20532;-55
2022/10/18 03:30:12;;;;;;;6.40;2.87;;;;;;;;;;4953247;28;20531;-56
2022/10/18 03:32:38;;;;;;;3.53;2.77;;;;;;;;;;4971894;28;20807;-57
2022/10/18 03:35:05;;;;;;;7.80;4.17;;;;;;;;;;4936828;28;20449;-56
2022/10/18 03:37:31;;;;;;;6.93;3.30;;;;;;;;;;4971345;28;22992;-56
2022/10/18 03:39:57;;;;;;;5.80;3.33;;;;;;;;;;4968218;28;20553;-55
2022/10/18 03:42:23;;;;;;;18.50;4.00;;;;;;;;;;4978484;28;20536;-56
2022/10/18 03:44:49;;;;;;;7.00;2.90;;;;;;;;;;4954412;28;21011;-54
2022/10/18 03:47:15;;;;;;;10.07;3.20;;;;;;;;;;4971461;28;20500;-56
2022/10/18 03:49:41;;;;;;;5.60;3.00;;;;;;;;;;4951384;28;20437;-55
2022/10/18 03:52:07;;;;;;;3.90;2.90;;;;;;;;;;4975050;28;20467;-56
2022/10/18 03:54:33;;;;;;;6.73;3.00;;;;;;;;;;4965037;28;20968;-55
2022/10/18 03:56:58;;;;;;;3.50;3.00;;;;;;;;;;4971161;28;20476;-55
2022/10/18 03:59:24;;;;;;;4.53;3.60;;;;;;;;;;4974846;28;20451;-55
2022/10/18 04:01:50;;;;;;;11.50;3.00;;;;;;;;;;4973524;28;20481;-56
2022/10/18 04:04:20;;;;;;;9.37;5.20;;;;;;;;;;4963348;28;20528;-55
2022/10/18 04:06:46;;;;;;;5.33;3.23;;;;;;;;;;4956817;28;20571;-54
2022/10/18 04:09:12;;;;;;;12.53;2.83;;;;;;;;;;4963869;28;20434;-55
2022/10/18 04:11:38;;;;;;;6.30;3.40;;;;;;;;;;4955915;28;20473;-58
2022/10/18 04:14:04;;;;;;;13.20;3.20;;;;;;;;;;4971999;28;20429;-54
2022/10/18 04:16:30;;;;;;;4.20;3.17;;;;;;;;;;4954778;28;21189;-54
2022/10/18 04:18:56;;;;;;;4.93;2.80;;;;;;;;;;4978389;28;20449;-56
2022/10/18 04:21:22;;;;;;;4.73;3.17;;;;;;;;;;4974169;28;20485;-56
2022/10/18 04:23:48;;;;;;;3.03;2.70;;;;;;;;;;4978486;28;20445;-56
2022/10/18 04:26:15;;;;;;;4.37;2.37;;;;;;;;;;4971468;28;20822;-55
2022/10/18 04:28:41;;;;;;;7.77;3.30;;;;;;;;;;4975491;28;20463;-54
2022/10/18 04:31:07;;;;;;;4.27;3.10;;;;;;;;;;4955175;28;20449;-56
2022/10/18 04:33:33;;;;;;;4.60;2.67;;;;;;;;;;4947457;28;20453;-57
2022/10/18 04:35:59;;;;;;;6.50;2.70;;;;;;;;;;4972328;28;20449;-56
2022/10/18 04:38:25;;;;;;;3.40;2.57;;;;;;;;;;4902798;28;20453;-54
2022/10/18 04:40:51;;;;;;;5.73;2.83;;;;;;;;;;4977952;28;20477;-55
2022/10/18 04:43:17;;;;;;;4.03;3.40;;;;;;;;;;4950848;28;20459;-55
2022/10/18 04:45:47;;;;;;;3.70;2.73;;;;;;;;;;4971212;28;20449;-55
2022/10/18 04:48:12;;;;;;;2.57;2.37;;;;;;;;;;4947339;28;21277;-55
2022/10/18 04:50:38;;;;;;;5.50;3.50;;;;;;;;;;4971570;28;20507;-54
2022/10/18 04:53:04;;;;;;;3.17;2.80;;;;;;;;;;4971394;28;20457;-56
2022/10/18 04:55:30;;;;;;;5.20;3.37;;;;;;;;;;4973513;28;20452;-56
2022/10/18 04:57:56;;;;;;;6.23;2.77;;;;;;;;;;4970509;28;20428;-55
2022/10/18 05:00:22;;;;;;;3.97;3.03;;;;;;;;;;4972252;28;20189;-56
2022/10/18 05:02:48;;;;;;;5.20;2.83;;;;;;;;;;4957785;28;20495;-56
2022/10/18 05:05:14;;;;;;;5.60;2.93;;;;;;;;;;5004968;28;21172;-56
2022/10/18 05:07:42;;;;;;;3.67;3.17;;;;;;;;;;4942577;28;21217;-54
2022/10/18 05:10:09;;;;;;;4.77;2.60;;;;;;;;;;4960285;28;20556;-56
2022/10/18 05:12:35;;;;;;;4.80;2.97;;;;;;;;;;4953287;28;21467;-54
2022/10/18 05:15:01;;;;;;;4.00;2.80;;;;;;;;;;4963979;28;20473;-56
2022/10/18 05:17:27;;;;;;;3.70;2.43;;;;;;;;;;4967730;28;21008;-56
2022/10/18 05:19:53;;;;;;;7.10;3.50;;;;;;;;;;4966443;28;20540;-57
2022/10/18 05:22:19;;;;;;;4.23;3.23;;;;;;;;;;4950121;28;20465;-57
2022/10/18 05:24:45;;;;;;;8.47;3.10;;;;;;;;;;4973640;28;20428;-56
2022/10/18 05:27:11;;;;;;;5.60;3.93;;;;;;;;;;4969807;28;20565;-58
2022/10/18 05:29:37;;;;;;;4.33;3.20;;;;;;;;;;4978445;28;20444;-58
2022/10/18 05:32:03;;;;;;;5.20;2.90;;;;;;;;;;4964835;28;20441;-57
2022/10/18 05:34:30;;;;;;;6.93;2.97;;;;;;;;;;4979121;28;20454;-56
2022/10/18 05:36:56;;;;;;;4.40;2.93;;;;;;;;;;4962570;28;20421;-56
2022/10/18 05:39:22;;;;;;;9.40;3.53;;;;;;;;;;4976262;28;20457;-56
2022/10/18 05:41:49;;;;;;;5.90;3.37;;;;;;;;;;4927887;28;20475;-55
2022/10/18 05:44:15;;;;;;;4.57;3.50;;;;;;;;;;4968979;28;20440;-55
2022/10/18 05:46:41;;;;;;;5.63;3.00;;;;;;;;;;4982736;28;20441;-55
2022/10/18 05:49:07;;;;;;;4.20;3.13;;;;;;;;;;4971539;28;20822;-57
2022/10/18 05:51:33;;;;;;;6.67;3.30;;;;;;;;;;4982005;28;20528;-56
2022/10/18 05:54:02;;;;;;;6.77;2.70;;;;;;;;;;4985916;28;20519;-57
2022/10/18 05:56:28;;;;;;;12.60;3.37;;;;;;;;;;4982318;28;20451;-59
2022/10/18 05:58:56;;;;;;;3.93;2.73;;;;;;;;;;4956460;28;20959;-57
2022/10/18 06:01:22;;;;;;;5.60;3.00;;;;;;;;;;5008595;28;20476;-57
2022/10/18 06:03:48;;;;;;;7.93;3.33;;;;;;;;;;4976538;28;20805;-57
2022/10/18 06:06:14;;;;;;;3.40;2.97;;;;;;;;;;4975036;28;20430;-56
2022/10/18 06:08:41;;;;;;;4.43;3.40;;;;;;;;;;4961339;28;21025;-56
2022/10/18 06:11:13;;;;;;;5.13;4.00;;;;;;;;;;4978300;28;23722;-57
2022/10/18 06:13:49;;;;;;;5.00;4.43;;;;;;;;;;4945673;28;20448;-57
2022/10/18 06:16:15;;;;;;;5.73;4.00;;;;;;;;;;4980675;28;20567;-56
2022/10/18 06:18:41;;;;;;;4.47;3.00;;;;;;;;;;4976271;28;20455;-56
2022/10/18 06:21:07;;;;;;;7.60;3.40;;;;;;;;;;4979108;28;20489;-57
2022/10/18 06:23:33;;;;;;;4.87;3.10;;;;;;;;;;4978360;28;20554;-55
2022/10/18 06:26:03;;;;;;;5.10;3.10;;;;;;;;;;4982306;28;20966;-58
2022/10/18 06:28:29;;;;;;;3.87;3.50;;;;;;;;;;4961075;28;20449;-55
2022/10/18 06:30:55;;;;;;;5.03;3.50;;;;;;;;;;4982114;28;20448;-53
2022/10/18 06:33:21;;;;;;;4.40;3.47;;;;;;;;;;4956620;28;20444;-57
2022/10/18 06:35:54;;;;;;;4.97;3.23;;;;;;;;;;4979770;28;20441;-55
2022/10/18 06:38:20;;;;;;;3.50;2.73;;;;;;;;;;4945982;28;20461;-54
2022/10/18 06:40:47;;;;;;;3.90;3.10;;;;;;;;;;4979319;28;20488;-57
2022/10/18 06:43:16;;;;;;;6.07;3.90;;;;;;;;;;4950142;28;21315;-57
2022/10/18 06:45:43;;;;;;;4.90;2.90;;;;;;;;;;4975318;28;20457;-56
2022/10/18 06:48:08;;;;;;;5.83;2.87;;;;;;;;;;4961599;28;21421;-56
2022/10/18 06:50:34;;;;;;;6.83;2.83;;;;;;;;;;4970929;28;20453;-54
2022/10/18 06:53:02;;;;;;;4.50;3.20;;;;;;;;;;4979038;28;20433;-56
2022/10/18 06:55:29;;;;;;;4.80;3.40;;;;;;;;;;4975456;28;20985;-56
2022/10/18 06:57:55;;;;;;;6.10;3.23;;;;;;;;;;4969787;28;20453;-57
2022/10/18 07:00:21;;;;;;;6.83;3.13;;;;;;;;;;4966642;28;20495;-56
2022/10/18 07:02:47;;;;;;;5.13;2.93;;;;;;;;;;4976606;28;20489;-56
2022/10/18 07:05:13;;;;;;;4.90;3.00;;;;;;;;;;4970232;28;21034;-57
2022/10/18 07:07:39;;;;;;;6.60;2.87;;;;;;;;;;4976829;28;20536;-57
2022/10/18 07:10:05;;;;;;;7.17;2.87;;;;;;;;;;4977330;28;21111;-55
2022/10/18 07:12:33;;;;;;;4.70;3.13;;;;;;;;;;4978542;28;20190;-55
2022/10/18 07:15:00;;;;;;;3.97;3.57;;;;;;;;;;4936549;28;20452;-56
2022/10/18 07:17:26;;;;;;;5.00;3.47;;;;;;;;;;4977286;28;20969;-56
2022/10/18 07:19:52;;;;;;;5.23;2.90;;;;;;;;;;4961196;28;20441;-56
2022/10/18 07:22:18;;;;;;;6.90;2.83;;;;;;;;;;4978058;28;20707;-56
2022/10/18 07:24:44;;;;;;;4.83;3.40;;;;;;;;;;4976740;28;20433;-55
2022/10/18 07:27:10;;;;;;;4.43;3.17;;;;;;;;;;4977641;28;20444;-56
2022/10/18 07:29:37;;;;;;;4.43;3.23;;;;;;;;;;4965518;28;20599;-56
2022/10/18 07:32:03;;;;;;;5.63;3.27;;;;;;;;;;4984051;28;20432;-56
2022/10/18 07:34:29;;;;;;;8.10;3.17;;;;;;;;;;4957895;28;20954;-55
2022/10/18 07:36:55;;;;;;;4.90;3.40;;;;;;;;;;4974890;28;20449;-56
2022/10/18 07:39:21;;;;;;;3.70;3.07;;;;;;;;;;4953869;28;21222;-56
2022/10/18 07:41:47;;;;;;;8.63;4.97;;;;;;;;;;4975852;28;20526;-55
2022/10/18 07:44:13;;;;;;;4.00;3.00;;;;;;;;;;4942902;28;20492;-55
2022/10/18 07:46:39;;;;;;;4.97;3.40;;;;;;;;;;4977538;28;20454;-56
2022/10/18 07:49:05;;;;;;;5.57;3.73;;;;;;;;;;4971216;28;20426;-54
2022/10/18 07:51:31;;;;;;;5.03;3.27;;;;;;;;;;4976732;28;20830;-56
2022/10/18 07:53:58;;;;;;;9.40;3.23;;;;;;;;;;4974160;28;20441;-56
2022/10/18 07:56:24;;;;;;;5.13;2.87;;;;;;;;;;4981346;28;20596;-56
2022/10/18 07:58:51;;;;;;;3.80;2.80;;;;;;;;;;4965868;28;20445;-55
2022/10/18 08:01:17;;;;;;;9.20;3.47;;;;;;;;;;4969824;28;20532;-57
2022/10/18 08:03:43;;;;;;;4.07;3.07;;;;;;;;;;4974070;28;20440;-55
2022/10/18 08:06:10;;;;;;;4.00;3.10;;;;;;;;;;4963481;28;20940;-55
2022/10/18 08:08:36;;;;;;;4.53;3.33;;;;;;;;;;4977183;28;20459;-56
2022/10/18 08:11:03;;;;;;;4.80;3.43;;;;;;;;;;4965611;28;20456;-56
2022/10/18 08:13:33;;;;;;;4.23;3.17;;;;;;;;;;4973839;28;20448;-56
2022/10/18 08:16:01;;;;;;;3.87;3.13;;;;;;;;;;4952207;28;20950;-57
2022/10/18 08:18:27;;;;;;;3.90;3.33;;;;;;;;;;4978242;28;20685;-56
2022/10/18 08:20:53;;;;;;;6.67;3.90;;;;;;;;;;4963522;28;20808;-56
2022/10/18 08:23:19;;;;;;;6.50;3.43;;;;;;;;;;4976671;28;20433;-57
2022/10/18 08:25:45;;;;;;;7.20;3.73;;;;;;;;;;5003229;28;20441;-56
2022/10/18 08:28:12;;;;;;;4.40;3.60;;;;;;;;;;4977521;28;20188;-56
2022/10/18 08:30:38;;;;;;;5.47;3.70;;;;;;;;;;4969363;28;20468;-56
2022/10/18 08:33:04;;;;;;;5.07;3.50;;;;;;;;;;4979260;28;20472;-55
2022/10/18 08:35:31;;;;;;;4.70;4.30;;;;;;;;;;4955443;28;20485;-56
2022/10/18 08:37:57;;;;;;;4.93;3.70;;;;;;;;;;4978897;28;21146;-56
2022/10/18 08:40:25;;;;;;;6.00;3.87;;;;;;;;;;4936155;28;20442;-56
2022/10/18 08:42:57;;;;;;;3.50;3.07;;;;;;;;;;4977271;28;20483;-55
2022/10/18 08:45:23;;;;;;;5.30;4.27;;;;;;;;;;4940846;28;20495;-56
2022/10/18 08:47:50;;;;;;;8.33;4.87;;;;;;;;;;4982465;28;20883;-56
2022/10/18 08:50:16;;;;;;;12.37;4.63;;;;;;;;;;4985749;28;20437;-56
2022/10/18 08:53:03;;;;;;;5.70;3.97;;;;;;;;;;4980082;28;20993;-56
2022/10/18 08:55:39;;;;;;;5.90;4.93;;;;;;;;;;5009225;28;20675;-60
2022/10/18 08:58:17;;;;;;;5.80;3.67;;;;;;;;;;4982941;28;21312;-60
2022/10/18 09:00:53;;;;;;;7.43;4.07;;;;;;;;;;4978988;28;20457;-55
2022/10/18 09:03:22;;;;;;;7.60;4.33;;;;;;;;;;4983178;28;20447;-56
2022/10/18 09:05:52;;;;;;;6.07;3.20;;;;;;;;;;4968086;28;21173;-56
2022/10/18 09:08:27;;;;;;;4.77;3.37;;;;;;;;;;5015748;28;20476;-56
2022/10/18 09:11:08;;;;;;;3.40;3.10;;;;;;;;;;4963262;28;20432;-58
2022/10/18 09:13:47;;;;;;;5.63;4.00;;;;;;;;;;4989560;28;20653;-55
2022/10/18 09:16:15;;;;;;;4.57;3.50;;;;;;;;;;4976142;28;20441;-56
2022/10/18 09:18:59;;;;;;;4.70;3.43;;;;;;;;;;4982281;28;20463;-56
2022/10/18 09:21:43;;;;;;;7.13;3.80;;;;;;;;;;4962501;28;20575;-56
2022/10/18 09:24:13;;;;;;;6.50;3.90;;;;;;;;;;4982565;28;20468;-56
2022/10/18 09:26:41;;;;;;;7.60;3.83;;;;;;;;;;4976370;28;20461;-56
2022/10/18 09:29:20;;;;;;;6.80;3.80;;;;;;;;;;4978838;28;20544;-56
2022/10/18 09:31:47;;;;;;;4.70;3.20;;;;;;;;;;4981854;28;20451;-55
2022/10/18 09:34:18;;;;;;;6.33;3.50;;;;;;;;;;4984057;28;20421;-56
2022/10/18 09:36:44;;;;;;;6.20;3.80;;;;;;;;;;5010101;28;20429;-56
2022/10/18 09:39:11;;;;;;;5.00;3.73;;;;;;;;;;4982036;28;20448;-57
2022/10/18 09:41:39;;;;;;;6.00;4.00;;;;;;;;;;4963294;28;20563;-57
2022/10/18 09:44:09;;;;;;;5.97;3.97;;;;;;;;;;5009324;28;20942;-56
2022/10/18 09:46:39;;;;;;;5.10;3.53;;;;;;;;;;4993600;28;20488;-56
2022/10/18 09:49:11;;;;;;;4.60;3.70;;;;;;;;;;4978509;28;20448;-56
2022/10/18 09:51:37;;;;;;;5.30;3.53;;;;;;;;;;4967671;28;20495;-57
2022/10/18 09:54:06;;;;;;;4.50;3.80;;;;;;;;;;4979190;28;20436;-56
2022/10/18 09:56:34;;;;;;;6.33;4.53;;;;;;;;;;4976464;28;20441;-56
2022/10/18 09:59:00;;;;;;;8.30;3.83;;;;;;;;;;4975834;28;20495;-56
2022/10/18 10:01:29;;;;;;;5.03;3.97;;;;;;;;;;4955016;28;20496;-56
2022/10/18 10:03:55;;;;;;;4.20;3.80;;;;;;;;;;4983897;28;20825;-56
2022/10/18 10:06:31;;;;;;;14.50;4.33;;;;;;;;;;4978699;28;20438;-57
2022/10/18 10:09:01;;;;;;;4.70;3.60;;;;;;;;;;4977085;28;20467;-56
2022/10/18 10:11:47;;;;;;;6.33;3.40;;;;;;;;;;4972241;28;20452;-56
2022/10/18 10:14:13;;;;;;;9.27;3.40;;;;;;;;;;4980387;28;20433;-56
2022/10/18 10:16:58;;;;;;;4.90;3.83;;;;;;;;;;4961697;28;20440;-56
2022/10/18 10:19:30;;;;;;;4.90;3.97;;;;;;;;;;4978148;28;20525;-56
2022/10/18 10:22:07;;;;;;;9.03;4.27;;;;;;;;;;4967176;28;20512;-56
2022/10/18 10:24:35;;;;;;;10.70;3.60;;;;;;;;;;4968410;28;20447;-55
2022/10/18 10:27:01;;;;;;;4.20;3.53;;;;;;;;;;4955984;28;20444;-56
2022/10/18 10:29:46;;;;;;;4.03;3.60;;;;;;;;;;5010238;28;20444;-57
2022/10/18 10:32:13;;;;;;;6.30;3.83;;;;;;;;;;4985667;28;21308;-56
2022/10/18 10:34:39;;;;;;;5.50;3.50;;;;;;;;;;4982799;28;20441;-56
2022/10/18 10:37:21;;;;;;;5.67;3.40;;;;;;;;;;4975758;28;20540;-55
2022/10/18 10:39:50;;;;;;;8.47;3.90;;;;;;;;;;5009201;28;20886;-55
2022/10/18 10:42:16;;;;;;;7.53;4.40;;;;;;;;;;4961675;28;20478;-56
2022/10/18 10:44:42;;;;;;;7.80;4.10;;;;;;;;;;4981103;28;20511;-56
2022/10/18 10:47:08;;;;;;;7.10;3.67;;;;;;;;;;4965367;28;20280;-56
2022/10/18 10:49:37;;;;;;;7.53;3.83;;;;;;;;;;4977488;28;20441;-57
2022/10/18 10:52:03;;;;;;;5.80;3.40;;;;;;;;;;4973734;28;20441;-56
2022/10/18 10:54:34;;;;;;;6.13;4.87;;;;;;;;;;4980445;28;20470;-57
2022/10/18 10:57:11;;;;;;;4.17;3.50;;;;;;;;;;4971382;28;20454;-57
2022/10/18 10:59:44;;;;;;;7.57;3.40;;;;;;;;;;4980853;28;20544;-57
2022/10/18 11:02:20;;;;;;;5.37;3.93;;;;;;;;;;4954192;28;20580;-55
2022/10/18 11:04:46;;;;;;;7.10;4.07;;;;;;;;;;5013170;28;20432;-58
2022/10/18 11:07:31;;;;;;;7.23;3.93;;;;;;;;;;4976413;28;20563;-55
2022/10/18 11:10:05;;;;;;;8.40;4.30;;;;;;;;;;4975699;28;20444;-55
2022/10/18 11:12:34;;;;;;;5.37;3.90;;;;;;;;;;4959393;28;20468;-56
2022/10/18 11:15:10;;;;;;;5.83;3.80;;;;;;;;;;4979412;28;20433;-56
2022/10/18 11:17:55;;;;;;;5.57;3.93;;;;;;;;;;4960461;28;20945;-57
2022/10/18 11:20:28;;;;;;;5.60;3.87;;;;;;;;;;4976399;28;20576;-54
2022/10/18 11:23:00;;;;;;;8.67;3.60;;;;;;;;;;4972241;28;20516;-56
2022/10/18 11:25:49;;;;;;;8.60;3.80;;;;;;;;;;4981577;28;20444;-55
2022/10/18 11:28:23;;;;;;;7.47;4.23;;;;;;;;;;4941811;28;20862;-56
2022/10/18 11:31:12;;;;;;;4.87;3.93;;;;;;;;;;4991183;28;20458;-56
2022/10/18 11:34:04;;;;;;;5.80;3.80;;;;;;;;;;4961962;28;20445;-56
2022/10/18 11:36:34;;;;;;;5.50;3.30;;;;;;;;;;4974121;28;21231;-56
2022/10/18 11:39:00;;;;;;;4.40;4.00;;;;;;;;;;4980333;28;20456;-56
2022/10/18 11:41:39;;;;;;;6.57;4.53;;;;;;;;;;4978350;28;21116;-56
2022/10/18 11:44:23;;;;;;;5.13;3.47;;;;;;;;;;4984782;28;20630;-55
2022/10/18 11:46:53;;;;;;;5.07;2.73;;;;;;;;;;4959665;28;20441;-56
2022/10/18 11:49:23;;;;;;;5.63;3.20;;;;;;;;;;4981290;28;20457;-55
2022/10/18 11:51:52;;;;;;;7.23;3.60;;;;;;;;;;4958926;28;21073;-54
2022/10/18 11:54:25;;;;;;;6.17;3.47;;;;;;;;;;4978822;28;20520;-55
2022/10/18 11:57:10;;;;;;;8.67;3.37;;;;;;;;;;4975481;28;20973;-57
2022/10/18 11:59:55;;;;;;;8.00;3.47;;;;;;;;;;4978538;28;20442;-56
2022/10/18 12:02:24;;;;;;;9.50;3.73;;;;;;;;;;4968899;28;20840;-56
2022/10/18 12:05:08;;;;;;;3.83;2.80;;;;;;;;;;4979536;28;20460;-56
2022/10/18 12:07:36;;;;;;;4.60;3.90;;;;;;;;;;4973599;28;20433;-56
2022/10/18 12:10:02;;;;;;;6.07;4.00;;;;;;;;;;4979469;28;20565;-55
2022/10/18 12:12:29;;;;;;;3.90;3.13;;;;;;;;;;4946556;28;20444;-57
2022/10/18 12:14:56;;;;;;;5.20;2.40;;;;;;;;;;4977708;28;20439;-56
2022/10/18 12:17:24;;;;;;;5.13;2.27;;;;;;;;;;4970548;28;20963;-56
2022/10/18 12:19:50;;;;;;;4.00;2.00;;;;;;;;;;5003528;28;20489;-56
2022/10/18 12:22:16;;;;;;;6.20;1.80;;;;;;;;;;4987502;28;20538;-56
2022/10/18 12:24:42;;;;;;;4.63;1.90;;;;;;;;;;4978556;28;20484;-56
2022/10/18 12:27:08;;;;;;;4.40;1.37;;;;;;;;;;4954592;28;20445;-55
2022/10/18 12:29:58;;;;;;;3.07;1.93;;;;;;;;;;5004327;28;20185;-57
2022/10/18 12:32:29;;;;;;;4.30;2.07;;;;;;;;;;4928152;28;21256;-56
2022/10/18 12:34:57;;;;;;;3.00;2.53;;;;;;;;;;4979465;28;20951;-57
2022/10/18 12:37:23;;;;;;;7.30;3.23;;;;;;;;;;5010639;28;20479;-56
2022/10/18 12:40:12;;;;;;;3.53;2.70;;;;;;;;;;4977949;28;20902;-56
2022/10/18 12:42:42;;;;;;;3.27;2.57;;;;;;;;;;4957380;28;20801;-55
2022/10/18 12:45:40;;;;;;;4.83;3.10;;;;;;;;;;4983148;28;20461;-54
2022/10/18 12:48:07;;;;;;;2.27;2.03;;;;;;;;;;4971279;28;20449;-55
2022/10/18 12:50:34;;;;;;;3.80;1.90;;;;;;;;;;4990286;28;21188;-56
2022/10/18 12:53:04;;;;;;;6.20;2.20;;;;;;;;;;4984955;28;20437;-56
2022/10/18 12:55:31;;;;;;;3.23;2.60;;;;;;;;;;4960850;28;20459;-56
2022/10/18 12:57:57;;;;;;;4.27;2.40;;;;;;;;;;5012465;28;20433;-56
2022/10/18 13:00:29;;;;;;;6.10;3.20;;;;;;;;;;4958938;28;20459;-55
2022/10/18 13:03:10;;;;;;;4.37;3.30;;;;;;;;;;4981974;28;20245;-56
2022/10/18 13:05:42;;;;;;;12.33;4.10;;;;;;;;;;4941217;28;20464;-55
2022/10/18 13:08:29;;;;;;;5.87;3.13;;;;;;;;;;4983262;28;20429;-56
2022/10/18 13:11:01;;;;;;;6.40;3.30;;;;;;;;;;4985061;28;20503;-54
2022/10/18 13:13:30;;;;;;;5.53;3.27;;;;;;;;;;4980853;28;20451;-58
2022/10/18 13:15:58;;;;;;;7.50;2.90;;;;;;;;;;4958018;28;21010;-58
2022/10/18 13:18:26;;;;;;;6.07;2.77;;;;;;;;;;5006756;28;21024;-58
2022/10/18 13:21:08;;;;;;;3.63;2.70;;;;;;;;;;5001305;28;20441;-57
2022/10/18 13:23:39;;;;;;;3.00;2.60;;;;;;;;;;5010301;28;20535;-57
2022/10/18 13:26:24;;;;;;;9.83;2.67;;;;;;;;;;4957742;28;20555;-57
2022/10/18 13:29:10;;;;;;;4.27;2.63;;;;;;;;;;4978763;28;20461;-55
2022/10/18 13:31:42;;;;;;;3.93;2.60;;;;;;;;;;4962299;28;21156;-56
2022/10/18 13:34:28;;;;;;;5.83;2.50;;;;;;;;;;4983797;28;20444;-57
2022/10/18 13:36:57;;;;;;;6.70;2.90;;;;;;;;;;4933212;28;21391;-57
2022/10/18 13:39:23;;;;;;;3.50;3.03;;;;;;;;;;4978523;28;20425;-56
2022/10/18 13:41:49;;;;;;;4.23;2.77;;;;;;;;;;4972347;28;20540;-57
2022/10/18 13:44:32;;;;;;;3.17;2.03;;;;;;;;;;4980787;28;20185;-57
2022/10/18 13:46:58;;;;;;;4.63;1.87;;;;;;;;;;4972937;28;20186;-57
2022/10/18 13:49:27;;;;;;;2.93;2.10;;;;;;;;;;4979163;28;20444;-57
2022/10/18 13:52:02;;;;;;;3.97;2.10;;;;;;;;;;4963062;28;20519;-57
2022/10/18 13:54:40;;;;;;;2.50;1.80;;;;;;;;;;4974344;28;20468;-55
2022/10/18 13:57:21;;;;;;;3.83;1.93;;;;;;;;;;4958020;28;20468;-57
2022/10/18 13:59:56;;;;;;;2.50;1.60;;;;;;;;;;4974927;28;20456;-57
2022/10/18 14:02:25;;;;;;;2.17;1.53;;;;;;;;;;4956300;28;20484;-57
2022/10/18 14:04:56;;;;;;;2.67;1.80;;;;;;;;;;4981595;28;20446;-56
2022/10/18 14:07:22;;;;;;;2.70;2.00;;;;;;;;;;4942220;28;20844;-56
2022/10/18 14:09:52;;;;;;;3.00;1.90;;;;;;;;;;5010940;28;20449;-56
2022/10/18 14:12:30;;;;;;;4.10;3.43;;;;;;;;;;5007657;28;20537;-57
2022/10/18 14:15:15;;;;;;;3.50;2.83;;;;;;;;;;4956609;28;20444;-56
2022/10/18 14:17:44;;;;;;;3.63;2.80;;;;;;;;;;4979129;28;20441;-56
2022/10/18 14:20:15;;;;;;;4.47;3.50;;;;;;;;;;4997692;28;20476;-57
2022/10/18 14:22:56;;;;;;;6.40;3.70;;;;;;;;;;4952089;28;21070;-58
2022/10/18 14:25:26;;;;;;;8.90;3.87;;;;;;;;;;4978581;28;20456;-56
2022/10/18 14:28:11;;;;;;;4.60;3.90;;;;;;;;;;4954047;28;20500;-56
2022/10/18 14:30:37;;;;;;;5.40;3.07;;;;;;;;;;4974402;28;20473;-58
2022/10/18 14:33:03;;;;;;;7.60;3.80;;;;;;;;;;4955454;28;20529;-61
2022/10/18 14:35:30;;;;;;;4.10;3.70;;;;;;;;;;4976032;28;20798;-57
2022/10/18 14:37:56;;;;;;;3.90;3.47;;;;;;;;;;4933663;28;20527;-57
2022/10/18 14:40:26;;;;;;;9.50;3.70;;;;;;;;;;4968609;28;21035;-57
2022/10/18 14:42:52;;;;;;;6.10;4.00;;;;;;;;;;4954612;28;20531;-57
2022/10/18 14:45:19;;;;;;;5.40;3.50;;;;;;;;;;4975797;28;20437;-56
2022/10/18 14:47:45;;;;;;;7.00;3.60;;;;;;;;;;4968166;28;20476;-58
2022/10/18 14:50:23;;;;;;;4.30;3.60;;;;;;;;;;4971476;28;22424;-57
2022/10/18 14:52:49;;;;;;;5.63;3.87;;;;;;;;;;4956690;28;20557;-57
2022/10/18 14:55:18;;;;;;;6.50;3.93;;;;;;;;;;5008492;28;20552;-57